Nortonville, North Dakota
Current Conditions -  °F | °C
As of 3:56 AM on Thursday 29 Jan 2015 (Local Time) from KJMS Reporting Station
Overcast Overcast  
Wind Chill: 12°   Ceiling: 1800
Heat Index: 26°   Visibility: 10mi
Dew Point: 21°   Wind: 21mph
Humidity: 81%   Direction: 330°NNW
Pressure: 30.24"   Gusts: 28mph
Location:  46.4882°N, 98.8135°W
Report Text: KJMS 290956Z AUTO 33018G24KT 10SM BKN018 OVC035 M03/M06 A3024 RMK AO2 PK WND 33029/0935 SLP262 T10331061
Loading
Personal Weather Stations






























Interactive Weather Map New forecast layout! Learn more

10-Day Weather Forecast

Advertisements
Track Severe Weather on mobile